Zylks, Louisiana
Current Conditions -  °F | °C
As of 12:16 AM on Monday 24 Nov 2014 (Local Time) from KTXK Reporting Station
Overcast Overcast  
Wind Chill: 53°   Ceiling: 2900
Heat Index: 53°   Visibility: 10mi
Dew Point: 43°   Wind: 17mph
Humidity: 69%   Direction: 260°W
Pressure: 29.66"   Gusts: 29mph
Location:  32.9696°N, 93.9801°W
Report Text: KTXK 240616Z AUTO 26015G25KT 10SM OVC029 12/06 A2966 RMK AO2 T01170061 $
Loading
Personal Weather Stations






























Interactive Weather Map New forecast layout! Learn more

10-Day Weather Forecast

Advertisements
Track Severe Weather on mobile